sensor_id;sensor_type;location;lat;lon;timestamp;P1;durP1;ratioP1;P2;durP2;ratioP2
44137;SDS011;29800;55.942;37.314;2023-06-05T00:02:22;6.60;;;2.47;;
44137;SDS011;29800;55.942;37.314;2023-06-05T00:04:48;5.75;;;2.45;;
44137;SDS011;29800;55.942;37.314;2023-06-05T00:07:15;4.63;;;2.40;;
44137;SDS011;29800;55.942;37.314;2023-06-05T00:09:41;4.00;;;2.40;;
44137;SDS011;29800;55.942;37.314;2023-06-05T00:12:08;6.03;;;2.10;;
44137;SDS011;29800;55.942;37.314;2023-06-05T00:14:34;4.20;;;2.13;;
44137;SDS011;29800;55.942;37.314;2023-06-05T00:17:01;4.65;;;2.00;;
44137;SDS011;29800;55.942;37.314;2023-06-05T00:19:29;3.25;;;2.00;;
44137;SDS011;29800;55.942;37.314;2023-06-05T00:21:56;10.35;;;2.13;;
44137;SDS011;29800;55.942;37.314;2023-06-05T00:24:23;4.22;;;2.38;;
44137;SDS011;29800;55.942;37.314;2023-06-05T00:26:49;3.80;;;2.10;;
44137;SDS011;29800;55.942;37.314;2023-06-05T00:29:15;6.30;;;2.63;;
44137;SDS011;29800;55.942;37.314;2023-06-05T00:31:42;4.70;;;2.50;;
44137;SDS011;29800;55.942;37.314;2023-06-05T00:34:09;7.25;;;2.13;;
44137;SDS011;29800;55.942;37.314;2023-06-05T00:36:36;3.55;;;2.20;;
44137;SDS011;29800;55.942;37.314;2023-06-05T00:39:02;4.43;;;1.98;;
44137;SDS011;29800;55.942;37.314;2023-06-05T00:41:29;3.63;;;2.17;;
44137;SDS011;29800;55.942;37.314;2023-06-05T00:43:56;4.57;;;2.00;;
44137;SDS011;29800;55.942;37.314;2023-06-05T00:46:22;3.20;;;1.80;;
44137;SDS011;29800;55.942;37.314;2023-06-05T00:48:48;5.38;;;1.80;;
44137;SDS011;29800;55.942;37.314;2023-06-05T00:51:16;6.05;;;1.90;;
44137;SDS011;29800;55.942;37.314;2023-06-05T00:53:44;3.65;;;2.13;;
44137;SDS011;29800;55.942;37.314;2023-06-05T00:56:12;4.63;;;2.00;;
44137;SDS011;29800;55.942;37.314;2023-06-05T00:58:39;3.92;;;1.85;;
44137;SDS011;29800;55.942;37.314;2023-06-05T01:01:05;4.43;;;2.15;;
44137;SDS011;29800;55.942;37.314;2023-06-05T01:03:36;3.45;;;1.75;;
44137;SDS011;29800;55.942;37.314;2023-06-05T01:06:05;2.78;;;1.83;;
44137;SDS011;29800;55.942;37.314;2023-06-05T01:08:32;4.90;;;1.98;;
44137;SDS011;29800;55.942;37.314;2023-06-05T01:11:11;2.80;;;1.85;;
44137;SDS011;29800;55.942;37.314;2023-06-05T01:13:48;4.75;;;2.03;;
44137;SDS011;29800;55.942;37.314;2023-06-05T01:16:19;4.95;;;1.92;;
44137;SDS011;29800;55.942;37.314;2023-06-05T01:18:58;5.05;;;2.00;;
44137;SDS011;29800;55.942;37.314;2023-06-05T01:21:29;3.22;;;1.95;;
44137;SDS011;29800;55.942;37.314;2023-06-05T01:23:57;3.80;;;1.88;;
44137;SDS011;29800;55.942;37.314;2023-06-05T01:26:27;7.88;;;2.03;;
44137;SDS011;29800;55.942;37.314;2023-06-05T01:29:00;4.57;;;1.77;;
44137;SDS011;29800;55.942;37.314;2023-06-05T01:31:29;4.72;;;1.92;;
44137;SDS011;29800;55.942;37.314;2023-06-05T01:34:05;3.28;;;1.65;;
44137;SDS011;29800;55.942;37.314;2023-06-05T01:36:37;6.85;;;1.90;;
44137;SDS011;29800;55.942;37.314;2023-06-05T01:39:05;4.18;;;2.15;;
44137;SDS011;29800;55.942;37.314;2023-06-05T01:41:34;4.95;;;2.03;;
44137;SDS011;29800;55.942;37.314;2023-06-05T01:44:01;2.80;;;1.98;;
44137;SDS011;29800;55.942;37.314;2023-06-05T01:46:29;5.47;;;1.90;;
44137;SDS011;29800;55.942;37.314;2023-06-05T01:48:55;4.28;;;1.80;;
44137;SDS011;29800;55.942;37.314;2023-06-05T01:51:22;3.45;;;1.52;;
44137;SDS011;29800;55.942;37.314;2023-06-05T01:53:48;6.05;;;1.95;;
44137;SDS011;29800;55.942;37.314;2023-06-05T01:56:16;2.67;;;1.60;;
44137;SDS011;29800;55.942;37.314;2023-06-05T01:58:48;6.72;;;1.85;;
44137;SDS011;29800;55.942;37.314;2023-06-05T02:01:14;4.95;;;2.45;;
44137;SDS011;29800;55.942;37.314;2023-06-05T02:03:42;3.75;;;1.63;;
44137;SDS011;29800;55.942;37.314;2023-06-05T02:06:13;3.05;;;1.83;;
44137;SDS011;29800;55.942;37.314;2023-06-05T02:08:41;2.85;;;1.58;;
44137;SDS011;29800;55.942;37.314;2023-06-05T02:11:09;2.97;;;1.75;;
44137;SDS011;29800;55.942;37.314;2023-06-05T02:13:37;3.30;;;1.55;;
44137;SDS011;29800;55.942;37.314;2023-06-05T02:16:06;3.85;;;2.00;;
44137;SDS011;29800;55.942;37.314;2023-06-05T02:18:36;3.47;;;1.80;;
44137;SDS011;29800;55.942;37.314;2023-06-05T02:21:07;3.65;;;1.60;;
44137;SDS011;29800;55.942;37.314;2023-06-05T02:23:33;3.50;;;1.55;;
44137;SDS011;29800;55.942;37.314;2023-06-05T02:25:59;3.10;;;1.83;;
44137;SDS011;29800;55.942;37.314;2023-06-05T02:28:26;4.47;;;1.65;;
44137;SDS011;29800;55.942;37.314;2023-06-05T02:30:53;2.92;;;1.50;;
44137;SDS011;29800;55.942;37.314;2023-06-05T02:33:21;4.75;;;1.45;;
44137;SDS011;29800;55.942;37.314;2023-06-05T02:35:47;4.03;;;1.73;;
44137;SDS011;29800;55.942;37.314;2023-06-05T02:38:14;4.97;;;1.60;;
44137;SDS011;29800;55.942;37.314;2023-06-05T02:40:40;4.15;;;1.75;;
44137;SDS011;29800;55.942;37.314;2023-06-05T02:43:06;3.17;;;1.63;;
44137;SDS011;29800;55.942;37.314;2023-06-05T02:45:34;3.63;;;1.70;;
44137;SDS011;29800;55.942;37.314;2023-06-05T02:48:01;4.45;;;1.50;;
44137;SDS011;29800;55.942;37.314;2023-06-05T02:50:30;3.58;;;1.70;;
44137;SDS011;29800;55.942;37.314;2023-06-05T02:53:01;5.00;;;1.65;;
44137;SDS011;29800;55.942;37.314;2023-06-05T02:55:32;3.65;;;1.40;;
44137;SDS011;29800;55.942;37.314;2023-06-05T02:58:03;4.22;;;1.80;;
44137;SDS011;29800;55.942;37.314;2023-06-05T03:00:40;5.60;;;1.60;;
44137;SDS011;29800;55.942;37.314;2023-06-05T03:03:06;3.08;;;1.48;;
44137;SDS011;29800;55.942;37.314;2023-06-05T03:05:34;3.53;;;1.60;;
44137;SDS011;29800;55.942;37.314;2023-06-05T03:08:06;4.00;;;1.52;;
44137;SDS011;29800;55.942;37.314;2023-06-05T03:10:34;3.38;;;1.52;;
44137;SDS011;29800;55.942;37.314;2023-06-05T03:13:02;5.13;;;1.60;;
44137;SDS011;29800;55.942;37.314;2023-06-05T03:15:32;3.67;;;1.58;;
44137;SDS011;29800;55.942;37.314;2023-06-05T03:18:00;3.25;;;1.77;;
44137;SDS011;29800;55.942;37.314;2023-06-05T03:20:28;3.70;;;1.63;;
44137;SDS011;29800;55.942;37.314;2023-06-05T03:22:54;5.30;;;1.67;;
44137;SDS011;29800;55.942;37.314;2023-06-05T03:25:23;3.08;;;1.63;;
44137;SDS011;29800;55.942;37.314;2023-06-05T03:27:54;2.83;;;1.60;;
44137;SDS011;29800;55.942;37.314;2023-06-05T03:30:24;2.88;;;1.58;;
44137;SDS011;29800;55.942;37.314;2023-06-05T03:32:53;3.42;;;1.70;;
44137;SDS011;29800;55.942;37.314;2023-06-05T03:35:20;3.60;;;1.55;;
44137;SDS011;29800;55.942;37.314;2023-06-05T03:37:47;2.80;;;1.55;;
44137;SDS011;29800;55.942;37.314;2023-06-05T03:40:14;2.72;;;1.60;;
44137;SDS011;29800;55.942;37.314;2023-06-05T03:42:42;3.65;;;1.63;;
44137;SDS011;29800;55.942;37.314;2023-06-05T03:45:09;3.95;;;1.90;;
44137;SDS011;29800;55.942;37.314;2023-06-05T03:47:37;5.40;;;2.05;;
44137;SDS011;29800;55.942;37.314;2023-06-05T03:50:06;3.00;;;1.70;;
44137;SDS011;29800;55.942;37.314;2023-06-05T03:52:36;3.00;;;1.90;;
44137;SDS011;29800;55.942;37.314;2023-06-05T03:55:06;3.35;;;1.80;;
44137;SDS011;29800;55.942;37.314;2023-06-05T03:57:34;3.70;;;1.85;;
44137;SDS011;29800;55.942;37.314;2023-06-05T04:00:01;3.38;;;1.65;;
44137;SDS011;29800;55.942;37.314;2023-06-05T04:02:39;4.95;;;1.70;;
44137;SDS011;29800;55.942;37.314;2023-06-05T04:05:08;3.80;;;1.90;;
44137;SDS011;29800;55.942;37.314;2023-06-05T04:07:38;4.03;;;1.65;;
44137;SDS011;29800;55.942;37.314;2023-06-05T04:10:05;2.88;;;1.60;;
44137;SDS011;29800;55.942;37.314;2023-06-05T04:12:33;3.03;;;1.50;;
44137;SDS011;29800;55.942;37.314;2023-06-05T04:14:59;2.80;;;1.65;;
44137;SDS011;29800;55.942;37.314;2023-06-05T04:17:27;2.65;;;1.52;;
44137;SDS011;29800;55.942;37.314;2023-06-05T04:19:53;9.52;;;1.70;;
44137;SDS011;29800;55.942;37.314;2023-06-05T04:22:20;7.07;;;1.67;;
44137;SDS011;29800;55.942;37.314;2023-06-05T04:24:46;4.45;;;1.92;;
44137;SDS011;29800;55.942;37.314;2023-06-05T04:27:12;2.97;;;1.60;;
44137;SDS011;29800;55.942;37.314;2023-06-05T04:29:40;3.20;;;1.60;;
44137;SDS011;29800;55.942;37.314;2023-06-05T04:32:06;2.65;;;1.60;;
44137;SDS011;29800;55.942;37.314;2023-06-05T04:34:33;3.55;;;1.60;;
44137;SDS011;29800;55.942;37.314;2023-06-05T04:36:59;2.70;;;1.40;;
44137;SDS011;29800;55.942;37.314;2023-06-05T04:39:27;1.88;;;1.35;;
44137;SDS011;29800;55.942;37.314;2023-06-05T04:41:54;3.38;;;1.60;;
44137;SDS011;29800;55.942;37.314;2023-06-05T04:44:25;3.20;;;1.65;;
44137;SDS011;29800;55.942;37.314;2023-06-05T04:46:51;4.65;;;1.63;;
44137;SDS011;29800;55.942;37.314;2023-06-05T04:49:18;3.22;;;1.58;;
44137;SDS011;29800;55.942;37.314;2023-06-05T04:51:46;2.20;;;1.50;;
44137;SDS011;29800;55.942;37.314;2023-06-05T04:54:13;3.30;;;1.40;;
44137;SDS011;29800;55.942;37.314;2023-06-05T04:56:41;3.45;;;1.77;;
44137;SDS011;29800;55.942;37.314;2023-06-05T04:59:09;4.30;;;1.58;;
44137;SDS011;29800;55.942;37.314;2023-06-05T05:01:36;3.78;;;1.58;;
44137;SDS011;29800;55.942;37.314;2023-06-05T05:04:02;3.45;;;1.45;;
44137;SDS011;29800;55.942;37.314;2023-06-05T05:06:30;2.92;;;1.60;;
44137;SDS011;29800;55.942;37.314;2023-06-05T05:08:57;4.45;;;1.58;;
44137;SDS011;29800;55.942;37.314;2023-06-05T05:11:23;3.05;;;1.55;;
44137;SDS011;29800;55.942;37.314;2023-06-05T05:13:51;3.90;;;2.00;;
44137;SDS011;29800;55.942;37.314;2023-06-05T05:16:18;3.28;;;1.55;;
44137;SDS011;29800;55.942;37.314;2023-06-05T05:18:46;2.65;;;1.40;;
44137;SDS011;29800;55.942;37.314;2023-06-05T05:21:13;3.15;;;1.42;;
44137;SDS011;29800;55.942;37.314;2023-06-05T05:23:41;2.58;;;1.52;;
44137;SDS011;29800;55.942;37.314;2023-06-05T05:26:09;2.58;;;1.42;;
44137;SDS011;29800;55.942;37.314;2023-06-05T05:28:36;2.40;;;1.60;;
44137;SDS011;29800;55.942;37.314;2023-06-05T05:31:02;3.13;;;1.33;;
44137;SDS011;29800;55.942;37.314;2023-06-05T05:33:32;3.30;;;1.60;;
44137;SDS011;29800;55.942;37.314;2023-06-05T05:36:00;3.40;;;1.85;;
44137;SDS011;29800;55.942;37.314;2023-06-05T05:38:28;3.55;;;1.52;;
44137;SDS011;29800;55.942;37.314;2023-06-05T05:40:54;2.33;;;1.60;;
44137;SDS011;29800;55.942;37.314;2023-06-05T05:43:20;5.05;;;1.55;;
44137;SDS011;29800;55.942;37.314;2023-06-05T05:45:47;4.03;;;1.70;;
44137;SDS011;29800;55.942;37.314;2023-06-05T05:48:13;3.03;;;1.63;;
44137;SDS011;29800;55.942;37.314;2023-06-05T05:50:40;3.83;;;1.65;;
44137;SDS011;29800;55.942;37.314;2023-06-05T05:53:06;4.75;;;1.85;;
44137;SDS011;29800;55.942;37.314;2023-06-05T05:55:33;2.58;;;1.67;;
44137;SDS011;29800;55.942;37.314;2023-06-05T05:57:59;3.08;;;1.60;;
44137;SDS011;29800;55.942;37.314;2023-06-05T06:00:26;4.35;;;1.70;;
44137;SDS011;29800;55.942;37.314;2023-06-05T06:02:54;3.03;;;1.63;;
44137;SDS011;29800;55.942;37.314;2023-06-05T06:05:20;3.38;;;1.70;;
44137;SDS011;29800;55.942;37.314;2023-06-05T06:07:47;2.88;;;1.60;;
44137;SDS011;29800;55.942;37.314;2023-06-05T06:10:13;3.53;;;1.67;;
44137;SDS011;29800;55.942;37.314;2023-06-05T06:12:41;3.50;;;1.55;;
44137;SDS011;29800;55.942;37.314;2023-06-05T06:15:07;3.95;;;1.70;;
44137;SDS011;29800;55.942;37.314;2023-06-05T06:17:35;2.65;;;1.48;;
44137;SDS011;29800;55.942;37.314;2023-06-05T06:20:02;3.53;;;1.40;;
44137;SDS011;29800;55.942;37.314;2023-06-05T06:22:29;5.82;;;1.90;;
44137;SDS011;29800;55.942;37.314;2023-06-05T06:24:56;4.60;;;1.65;;
44137;SDS011;29800;55.942;37.314;2023-06-05T06:27:22;2.60;;;1.33;;
44137;SDS011;29800;55.942;37.314;2023-06-05T06:29:50;2.47;;;1.65;;
44137;SDS011;29800;55.942;37.314;2023-06-05T06:32:21;4.28;;;1.50;;
44137;SDS011;29800;55.942;37.314;2023-06-05T06:34:48;3.58;;;1.20;;
44137;SDS011;29800;55.942;37.314;2023-06-05T06:37:15;2.65;;;1.27;;
44137;SDS011;29800;55.942;37.314;2023-06-05T06:39:42;3.55;;;1.58;;
44137;SDS011;29800;55.942;37.314;2023-06-05T06:42:09;3.40;;;1.52;;
44137;SDS011;29800;55.942;37.314;2023-06-05T06:44:38;3.63;;;1.40;;
44137;SDS011;29800;55.942;37.314;2023-06-05T06:47:05;2.95;;;1.42;;
44137;SDS011;29800;55.942;37.314;2023-06-05T06:49:31;2.50;;;1.40;;
44137;SDS011;29800;55.942;37.314;2023-06-05T06:51:58;3.15;;;1.00;;
44137;SDS011;29800;55.942;37.314;2023-06-05T06:54:25;4.10;;;1.20;;
44137;SDS011;29800;55.942;37.314;2023-06-05T06:56:55;3.83;;;1.50;;
44137;SDS011;29800;55.942;37.314;2023-06-05T06:59:21;2.85;;;1.17;;
44137;SDS011;29800;55.942;37.314;2023-06-05T07:01:48;4.25;;;1.30;;
44137;SDS011;29800;55.942;37.314;2023-06-05T07:04:34;4.30;;;2.72;;
44137;SDS011;29800;55.942;37.314;2023-06-05T07:07:01;3.50;;;1.35;;
44137;SDS011;29800;55.942;37.314;2023-06-05T07:09:27;4.22;;;1.23;;
44137;SDS011;29800;55.942;37.314;2023-06-05T07:11:53;1.55;;;0.90;;
44137;SDS011;29800;55.942;37.314;2023-06-05T07:14:21;3.90;;;1.20;;
44137;SDS011;29800;55.942;37.314;2023-06-05T07:16:48;2.13;;;1.13;;
44137;SDS011;29800;55.942;37.314;2023-06-05T07:19:17;2.60;;;1.13;;
44137;SDS011;29800;55.942;37.314;2023-06-05T07:21:43;3.95;;;1.20;;
44137;SDS011;29800;55.942;37.314;2023-06-05T07:24:10;3.17;;;1.10;;
44137;SDS011;29800;55.942;37.314;2023-06-05T07:26:36;3.28;;;1.20;;
44137;SDS011;29800;55.942;37.314;2023-06-05T07:29:02;3.17;;;1.30;;
44137;SDS011;29800;55.942;37.314;2023-06-05T07:31:29;3.25;;;1.30;;
44137;SDS011;29800;55.942;37.314;2023-06-05T07:33:56;3.17;;;1.30;;
44137;SDS011;29800;55.942;37.314;2023-06-05T07:36:22;2.20;;;1.20;;
44137;SDS011;29800;55.942;37.314;2023-06-05T07:38:48;4.53;;;1.30;;
44137;SDS011;29800;55.942;37.314;2023-06-05T07:41:15;3.42;;;1.10;;
44137;SDS011;29800;55.942;37.314;2023-06-05T07:43:41;2.33;;;1.30;;
44137;SDS011;29800;55.942;37.314;2023-06-05T07:46:10;3.40;;;1.90;;
44137;SDS011;29800;55.942;37.314;2023-06-05T07:48:37;2.50;;;1.50;;
44137;SDS011;29800;55.942;37.314;2023-06-05T07:51:03;3.10;;;1.05;;
44137;SDS011;29800;55.942;37.314;2023-06-05T07:53:30;2.22;;;1.20;;
44137;SDS011;29800;55.942;37.314;2023-06-05T07:55:56;3.88;;;1.30;;
44137;SDS011;29800;55.942;37.314;2023-06-05T07:58:23;3.55;;;1.20;;
44137;SDS011;29800;55.942;37.314;2023-06-05T08:00:49;2.63;;;0.98;;
44137;SDS011;29800;55.942;37.314;2023-06-05T08:03:15;2.92;;;0.95;;
44137;SDS011;29800;55.942;37.314;2023-06-05T08:05:46;2.83;;;1.05;;
44137;SDS011;29800;55.942;37.314;2023-06-05T08:08:13;3.40;;;1.10;;
44137;SDS011;29800;55.942;37.314;2023-06-05T08:10:40;2.58;;;1.20;;
44137;SDS011;29800;55.942;37.314;2023-06-05T08:13:09;2.97;;;1.13;;
44137;SDS011;29800;55.942;37.314;2023-06-05T08:15:36;2.40;;;1.27;;
44137;SDS011;29800;55.942;37.314;2023-06-05T08:18:03;1.55;;;0.90;;
44137;SDS011;29800;55.942;37.314;2023-06-05T08:20:29;3.40;;;1.08;;
44137;SDS011;29800;55.942;37.314;2023-06-05T08:22:55;3.10;;;1.73;;
44137;SDS011;29800;55.942;37.314;2023-06-05T08:25:26;3.63;;;1.00;;
44137;SDS011;29800;55.942;37.314;2023-06-05T08:27:53;2.13;;;1.10;;
44137;SDS011;29800;55.942;37.314;2023-06-05T08:30:19;1.95;;;1.10;;
44137;SDS011;29800;55.942;37.314;2023-06-05T08:32:46;2.35;;;1.05;;
44137;SDS011;29800;55.942;37.314;2023-06-05T08:35:12;1.85;;;1.00;;
44137;SDS011;29800;55.942;37.314;2023-06-05T08:37:38;2.67;;;1.30;;
44137;SDS011;29800;55.942;37.314;2023-06-05T08:40:05;3.08;;;1.10;;
44137;SDS011;29800;55.942;37.314;2023-06-05T08:42:36;1.80;;;1.05;;
44137;SDS011;29800;55.942;37.314;2023-06-05T08:45:06;2.58;;;1.15;;
44137;SDS011;29800;55.942;37.314;2023-06-05T08:47:37;3.45;;;1.15;;
44137;SDS011;29800;55.942;37.314;2023-06-05T08:50:05;4.50;;;1.20;;
44137;SDS011;29800;55.942;37.314;2023-06-05T08:52:33;2.42;;;1.20;;
44137;SDS011;29800;55.942;37.314;2023-06-05T08:55:05;2.72;;;1.20;;
44137;SDS011;29800;55.942;37.314;2023-06-05T08:57:37;3.70;;;1.20;;
44137;SDS011;29800;55.942;37.314;2023-06-05T09:00:06;4.47;;;1.10;;
44137;SDS011;29800;55.942;37.314;2023-06-05T09:02:37;4.05;;;1.20;;
44137;SDS011;29800;55.942;37.314;2023-06-05T09:05:12;3.50;;;1.00;;
44137;SDS011;29800;55.942;37.314;2023-06-05T09:07:40;4.32;;;1.00;;
44137;SDS011;29800;55.942;37.314;2023-06-05T09:10:06;5.20;;;1.17;;
44137;SDS011;29800;55.942;37.314;2023-06-05T09:12:53;3.42;;;1.13;;
44137;SDS011;29800;55.942;37.314;2023-06-05T09:15:22;4.60;;;1.05;;
44137;SDS011;29800;55.942;37.314;2023-06-05T09:18:03;5.20;;;1.25;;
44137;SDS011;29800;55.942;37.314;2023-06-05T09:20:34;2.50;;;1.20;;
44137;SDS011;29800;55.942;37.314;2023-06-05T09:23:04;2.47;;;1.20;;
44137;SDS011;29800;55.942;37.314;2023-06-05T09:25:46;2.65;;;1.40;;
44137;SDS011;29800;55.942;37.314;2023-06-05T09:28:17;4.85;;;1.30;;
44137;SDS011;29800;55.942;37.314;2023-06-05T09:30:53;5.50;;;1.10;;
44137;SDS011;29800;55.942;37.314;2023-06-05T09:33:23;2.00;;;1.10;;
44137;SDS011;29800;55.942;37.314;2023-06-05T09:36:09;3.15;;;1.10;;
44137;SDS011;29800;55.942;37.314;2023-06-05T09:38:38;2.65;;;0.90;;
44137;SDS011;29800;55.942;37.314;2023-06-05T09:41:10;2.83;;;1.50;;
44137;SDS011;29800;55.942;37.314;2023-06-05T09:43:40;2.55;;;1.20;;
44137;SDS011;29800;55.942;37.314;2023-06-05T09:46:07;4.22;;;1.60;;
44137;SDS011;29800;55.942;37.314;2023-06-05T09:48:41;3.80;;;1.33;;
44137;SDS011;29800;55.942;37.314;2023-06-05T09:51:10;6.45;;;2.33;;
44137;SDS011;29800;55.942;37.314;2023-06-05T09:53:42;24.35;;;9.40;;
44137;SDS011;29800;55.942;37.314;2023-06-05T09:56:14;20.85;;;7.75;;
44137;SDS011;29800;55.942;37.314;2023-06-05T09:58:47;4.78;;;2.40;;
44137;SDS011;29800;55.942;37.314;2023-06-05T10:01:17;5.97;;;2.40;;
44137;SDS011;29800;55.942;37.314;2023-06-05T10:03:56;6.88;;;2.75;;
44137;SDS011;29800;55.942;37.314;2023-06-05T10:06:28;1.15;;;0.80;;
44137;SDS011;29800;55.942;37.314;2023-06-05T10:08:56;1.52;;;0.80;;
44137;SDS011;29800;55.942;37.314;2023-06-05T10:11:24;2.55;;;1.17;;
44137;SDS011;29800;55.942;37.314;2023-06-05T10:13:52;1.30;;;0.80;;
44137;SDS011;29800;55.942;37.314;2023-06-05T10:16:20;1.80;;;1.00;;
44137;SDS011;29800;55.942;37.314;2023-06-05T10:18:47;1.67;;;1.00;;
44137;SDS011;29800;55.942;37.314;2023-06-05T10:21:14;2.65;;;0.95;;
44137;SDS011;29800;55.942;37.314;2023-06-05T10:23:47;3.38;;;1.17;;
44137;SDS011;29800;55.942;37.314;2023-06-05T10:26:27;2.13;;;1.20;;
44137;SDS011;29800;55.942;37.314;2023-06-05T10:31:47;5.47;;;1.20;;
44137;SDS011;29800;55.942;37.314;2023-06-05T10:34:24;1.40;;;0.80;;
44137;SDS011;29800;55.942;37.314;2023-06-05T10:37:04;1.52;;;0.90;;
44137;SDS011;29800;55.942;37.314;2023-06-05T10:39:53;2.22;;;1.13;;
44137;SDS011;29800;55.942;37.314;2023-06-05T10:42:23;2.47;;;0.95;;
44137;SDS011;29800;55.942;37.314;2023-06-05T10:44:52;2.35;;;1.00;;
44137;SDS011;29800;55.942;37.314;2023-06-05T10:52:51;3.60;;;1.40;;
44137;SDS011;29800;55.942;37.314;2023-06-05T10:55:19;2.30;;;1.17;;
44137;SDS011;29800;55.942;37.314;2023-06-05T10:58:03;3.85;;;1.42;;
44137;SDS011;29800;55.942;37.314;2023-06-05T11:00:31;1.60;;;1.00;;
44137;SDS011;29800;55.942;37.314;2023-06-05T11:02:57;2.05;;;1.20;;
44137;SDS011;29800;55.942;37.314;2023-06-05T11:05:24;3.88;;;1.10;;
44137;SDS011;29800;55.942;37.314;2023-06-05T11:08:24;2.55;;;1.10;;
44137;SDS011;29800;55.942;37.314;2023-06-05T11:11:06;3.00;;;1.00;;
44137;SDS011;29800;55.942;37.314;2023-06-05T11:16:28;2.75;;;1.10;;
44137;SDS011;29800;55.942;37.314;2023-06-05T11:22:05;4.35;;;1.67;;
44137;SDS011;29800;55.942;37.314;2023-06-05T11:24:33;2.83;;;1.40;;
44137;SDS011;29800;55.942;37.314;2023-06-05T11:27:01;4.30;;;1.23;;
44137;SDS011;29800;55.942;37.314;2023-06-05T11:29:29;2.90;;;1.10;;
44137;SDS011;29800;55.942;37.314;2023-06-05T11:31:55;5.35;;;1.40;;
44137;SDS011;29800;55.942;37.314;2023-06-05T11:34:22;2.85;;;1.23;;
44137;SDS011;29800;55.942;37.314;2023-06-05T11:36:48;5.28;;;1.30;;
44137;SDS011;29800;55.942;37.314;2023-06-05T11:39:14;2.55;;;1.00;;
44137;SDS011;29800;55.942;37.314;2023-06-05T11:41:47;1.50;;;0.77;;
44137;SDS011;29800;55.942;37.314;2023-06-05T11:44:16;2.95;;;0.80;;
44137;SDS011;29800;55.942;37.314;2023-06-05T11:46:57;2.10;;;0.70;;
44137;SDS011;29800;55.942;37.314;2023-06-05T11:49:24;1.95;;;0.75;;
44137;SDS011;29800;55.942;37.314;2023-06-05T11:51:53;1.98;;;1.00;;
44137;SDS011;29800;55.942;37.314;2023-06-05T11:54:30;2.60;;;1.25;;
44137;SDS011;29800;55.942;37.314;2023-06-05T11:57:00;2.25;;;1.40;;
44137;SDS011;29800;55.942;37.314;2023-06-05T11:59:35;2.13;;;1.20;;
44137;SDS011;29800;55.942;37.314;2023-06-05T12:02:02;2.65;;;0.98;;
44137;SDS011;29800;55.942;37.314;2023-06-05T12:04:30;2.42;;;0.95;;
44137;SDS011;29800;55.942;37.314;2023-06-05T12:06:58;3.00;;;1.00;;
44137;SDS011;29800;55.942;37.314;2023-06-05T12:09:27;1.70;;;0.90;;
44137;SDS011;29800;55.942;37.314;2023-06-05T12:12:03;1.55;;;0.90;;
44137;SDS011;29800;55.942;37.314;2023-06-05T12:14:33;1.45;;;0.73;;
44137;SDS011;29800;55.942;37.314;2023-06-05T12:17:00;2.00;;;0.90;;
44137;SDS011;29800;55.942;37.314;2023-06-05T12:19:34;1.35;;;0.70;;
44137;SDS011;29800;55.942;37.314;2023-06-05T12:22:06;2.00;;;0.90;;
44137;SDS011;29800;55.942;37.314;2023-06-05T12:24:34;1.13;;;0.70;;
44137;SDS011;29800;55.942;37.314;2023-06-05T12:27:02;2.28;;;0.82;;
44137;SDS011;29800;55.942;37.314;2023-06-05T12:29:31;1.63;;;0.95;;
44137;SDS011;29800;55.942;37.314;2023-06-05T12:32:00;4.18;;;0.80;;
44137;SDS011;29800;55.942;37.314;2023-06-05T12:37:11;2.28;;;1.00;;
44137;SDS011;29800;55.942;37.314;2023-06-05T12:39:47;1.55;;;0.70;;
44137;SDS011;29800;55.942;37.314;2023-06-05T12:42:13;1.25;;;0.80;;
44137;SDS011;29800;55.942;37.314;2023-06-05T12:44:39;2.80;;;1.00;;
44137;SDS011;29800;55.942;37.314;2023-06-05T12:47:06;3.00;;;0.90;;
44137;SDS011;29800;55.942;37.314;2023-06-05T12:49:32;1.63;;;0.93;;
44137;SDS011;29800;55.942;37.314;2023-06-05T12:51:59;1.88;;;0.90;;
44137;SDS011;29800;55.942;37.314;2023-06-05T12:54:27;2.63;;;0.75;;
44137;SDS011;29800;55.942;37.314;2023-06-05T12:56:54;2.50;;;0.82;;
44137;SDS011;29800;55.942;37.314;2023-06-05T12:59:21;2.53;;;0.93;;
44137;SDS011;29800;55.942;37.314;2023-06-05T13:01:47;2.72;;;1.08;;
44137;SDS011;29800;55.942;37.314;2023-06-05T13:04:14;1.23;;;0.85;;
44137;SDS011;29800;55.942;37.314;2023-06-05T13:06:40;2.22;;;1.20;;
44137;SDS011;29800;55.942;37.314;2023-06-05T13:09:07;2.08;;;0.90;;
44137;SDS011;29800;55.942;37.314;2023-06-05T13:11:34;3.28;;;1.40;;
44137;SDS011;29800;55.942;37.314;2023-06-05T13:14:00;4.93;;;1.30;;
44137;SDS011;29800;55.942;37.314;2023-06-05T13:16:27;1.63;;;0.90;;
44137;SDS011;29800;55.942;37.314;2023-06-05T13:18:53;2.47;;;0.93;;
44137;SDS011;29800;55.942;37.314;2023-06-05T13:21:20;2.63;;;1.02;;
44137;SDS011;29800;55.942;37.314;2023-06-05T13:23:46;2.50;;;1.00;;
44137;SDS011;29800;55.942;37.314;2023-06-05T13:26:12;2.47;;;1.00;;
44137;SDS011;29800;55.942;37.314;2023-06-05T13:28:39;4.03;;;1.23;;
44137;SDS011;29800;55.942;37.314;2023-06-05T13:31:05;2.53;;;1.55;;
44137;SDS011;29800;55.942;37.314;2023-06-05T13:33:32;3.88;;;2.30;;
44137;SDS011;29800;55.942;37.314;2023-06-05T13:35:59;2.97;;;1.60;;
44137;SDS011;29800;55.942;37.314;2023-06-05T13:38:26;3.15;;;1.40;;
44137;SDS011;29800;55.942;37.314;2023-06-05T13:40:52;4.18;;;1.67;;
44137;SDS011;29800;55.942;37.314;2023-06-05T13:43:19;3.58;;;1.50;;
44137;SDS011;29800;55.942;37.314;2023-06-05T13:45:46;6.35;;;1.30;;
44137;SDS011;29800;55.942;37.314;2023-06-05T13:48:12;4.32;;;1.15;;
44137;SDS011;29800;55.942;37.314;2023-06-05T13:50:39;2.38;;;1.38;;
44137;SDS011;29800;55.942;37.314;2023-06-05T13:53:05;2.53;;;1.20;;
44137;SDS011;29800;55.942;37.314;2023-06-05T13:55:31;4.55;;;1.17;;
44137;SDS011;29800;55.942;37.314;2023-06-05T13:57:58;4.72;;;1.92;;
44137;SDS011;29800;55.942;37.314;2023-06-05T14:00:27;2.95;;;1.30;;
44137;SDS011;29800;55.942;37.314;2023-06-05T14:02:55;2.25;;;1.10;;
44137;SDS011;29800;55.942;37.314;2023-06-05T14:05:21;3.08;;;1.40;;
44137;SDS011;29800;55.942;37.314;2023-06-05T14:07:49;2.17;;;1.20;;
44137;SDS011;29800;55.942;37.314;2023-06-05T14:10:17;4.22;;;1.55;;
44137;SDS011;29800;55.942;37.314;2023-06-05T14:12:45;4.72;;;1.23;;
44137;SDS011;29800;55.942;37.314;2023-06-05T14:15:11;3.38;;;1.35;;
44137;SDS011;29800;55.942;37.314;2023-06-05T14:17:38;2.28;;;1.10;;
44137;SDS011;29800;55.942;37.314;2023-06-05T14:20:04;2.60;;;0.98;;
44137;SDS011;29800;55.942;37.314;2023-06-05T14:22:31;2.38;;;1.33;;
44137;SDS011;29800;55.942;37.314;2023-06-05T14:24:58;5.95;;;1.20;;
44137;SDS011;29800;55.942;37.314;2023-06-05T14:27:24;3.08;;;1.40;;
44137;SDS011;29800;55.942;37.314;2023-06-05T14:29:50;2.53;;;1.30;;
44137;SDS011;29800;55.942;37.314;2023-06-05T14:32:17;4.10;;;1.63;;
44137;SDS011;29800;55.942;37.314;2023-06-05T14:34:43;2.08;;;1.25;;
44137;SDS011;29800;55.942;37.314;2023-06-05T14:37:09;4.00;;;1.40;;
44137;SDS011;29800;55.942;37.314;2023-06-05T14:39:36;2.20;;;1.20;;
44137;SDS011;29800;55.942;37.314;2023-06-05T14:42:02;2.42;;;1.20;;
44137;SDS011;29800;55.942;37.314;2023-06-05T14:44:29;2.72;;;1.30;;
44137;SDS011;29800;55.942;37.314;2023-06-05T14:46:57;3.70;;;1.38;;
44137;SDS011;29800;55.942;37.314;2023-06-05T14:49:23;4.07;;;1.40;;
44137;SDS011;29800;55.942;37.314;2023-06-05T14:51:51;2.60;;;1.45;;
44137;SDS011;29800;55.942;37.314;2023-06-05T14:54:17;5.03;;;1.35;;
44137;SDS011;29800;55.942;37.314;2023-06-05T14:56:44;4.07;;;1.35;;
44137;SDS011;29800;55.942;37.314;2023-06-05T14:59:12;2.65;;;1.25;;